Time;durP1;ratioP1;P1;durP2;ratioP2;P2;SDS_P1;SDS_P2;PMS_P1;PMS_P2;Temp;Humidity;BMP_temperature;BMP_pressure;BME280_temperature;BME280_humidity;BME280_pressure;Samples;Min_cycle;Max_cycle;Signal;HPM_P1;HPM_P2
2022/04/27 00:00:17;;;;;;;2.37;2.17;;;19.00;43.80;;;;;;5041198;28;20440;-58
2022/04/27 00:02:43;;;;;;;2.50;2.30;;;19.00;43.80;;;;;;5040639;28;20493;-57
2022/04/27 00:05:09;;;;;;;2.17;2.07;;;19.00;43.80;;;;;;5040720;28;20273;-57
2022/04/27 00:07:35;;;;;;;1.93;1.83;;;19.00;43.80;;;;;;5038668;28;20465;-58
2022/04/27 00:10:01;;;;;;;1.80;1.70;;;19.00;43.80;;;;;;5036008;28;21020;-57
2022/04/27 00:12:27;;;;;;;2.20;2.10;;;19.00;43.80;;;;;;5034398;28;20314;-58
2022/04/27 00:14:52;;;;;;;2.20;2.10;;;19.00;43.80;;;;;;5037858;28;20498;-57
2022/04/27 00:17:18;;;;;;;2.30;2.10;;;19.00;43.80;;;;;;5036047;28;20242;-57
2022/04/27 00:19:44;;;;;;;2.00;1.90;;;19.00;43.70;;;;;;5037278;28;20309;-59
2022/04/27 00:22:11;;;;;;;2.37;2.27;;;19.00;43.80;;;;;;5040254;28;20646;-58
2022/04/27 00:24:39;;;;;;;2.20;2.10;;;19.00;43.70;;;;;;5038195;28;20484;-58
2022/04/27 00:27:05;;;;;;;2.00;1.90;;;19.00;43.70;;;;;;5038030;28;20451;-58
2022/04/27 00:29:31;;;;;;;2.13;2.03;;;19.00;43.80;;;;;;5036908;28;20479;-58
2022/04/27 00:31:56;;;;;;;2.43;2.23;;;19.00;43.80;;;;;;5039854;28;20218;-60
2022/04/27 00:34:22;;;;;;;2.00;1.90;;;19.00;43.70;;;;;;5034949;28;20313;-57
2022/04/27 00:36:47;;;;;;;2.30;2.20;;;19.00;43.70;;;;;;5039639;28;20637;-57
2022/04/27 00:39:13;;;;;;;2.00;1.90;;;19.00;43.80;;;;;;5034850;28;20238;-57
2022/04/27 00:41:39;;;;;;;2.33;2.23;;;19.00;43.70;;;;;;5037691;28;20226;-59
2022/04/27 00:44:04;;;;;;;2.40;2.30;;;19.00;43.60;;;;;;5038043;28;20234;-57
2022/04/27 00:46:30;;;;;;;2.40;2.30;;;19.00;43.60;;;;;;5041590;28;20322;-57
2022/04/27 00:48:55;;;;;;;2.10;2.00;;;19.00;43.60;;;;;;5038945;28;21512;-58
2022/04/27 00:51:23;;;;;;;2.13;2.03;;;19.00;43.60;;;;;;5036243;28;20219;-58
2022/04/27 00:53:50;;;;;;;2.30;2.10;;;19.00;43.60;;;;;;5034531;28;20227;-56
2022/04/27 00:56:18;;;;;;;2.10;2.00;;;19.00;44.30;;;;;;5035936;28;20427;-57
2022/04/27 00:58:44;;;;;;;2.20;2.10;;;19.00;43.50;;;;;;5037307;28;20465;-58
2022/04/27 01:01:10;;;;;;;2.30;2.20;;;19.00;43.50;;;;;;5038184;28;20452;-58
2022/04/27 01:03:36;;;;;;;2.10;2.00;;;19.00;43.60;;;;;;5036453;28;20474;-58
2022/04/27 01:06:03;;;;;;;2.27;2.17;;;19.00;43.60;;;;;;5036349;28;20640;-58
2022/04/27 01:08:29;;;;;;;2.37;2.27;;;19.00;43.60;;;;;;5035577;28;20493;-58
2022/04/27 01:10:59;;;;;;;2.07;1.97;;;19.00;43.50;;;;;;5037598;28;20431;-57
2022/04/27 01:13:27;;;;;;;2.03;1.93;;;19.00;43.50;;;;;;5036048;28;20680;-57
2022/04/27 01:15:52;;;;;;;2.20;2.00;;;19.00;44.30;;;;;;5037019;28;20451;-57
2022/04/27 01:18:18;;;;;;;2.20;2.10;;;19.00;43.50;;;;;;5040656;28;20489;-58
2022/04/27 01:20:45;;;;;;;2.30;2.20;;;19.00;43.50;;;;;;5037634;28;20584;-57
2022/04/27 01:23:14;;;;;;;1.90;1.80;;;19.00;43.50;;;;;;5037709;28;20531;-59
2022/04/27 01:25:50;;;;;;;2.07;1.97;;;19.00;43.50;;;;;;5040702;28;20570;-58
2022/04/27 01:28:18;;;;;;;2.10;2.00;;;19.00;43.60;;;;;;5035198;28;20488;-57
2022/04/27 01:30:44;;;;;;;2.37;2.27;;;19.00;43.60;;;;;;5037892;28;20455;-57
2022/04/27 01:33:10;;;;;;;2.20;2.10;;;19.00;43.60;;;;;;5039651;28;20457;-58
2022/04/27 01:35:36;;;;;;;2.10;2.00;;;19.00;43.60;;;;;;5032953;28;20306;-58
2022/04/27 01:38:03;;;;;;;2.23;2.07;;;19.00;43.50;;;;;;5036990;28;20534;-58
2022/04/27 01:40:29;;;;;;;2.10;2.00;;;19.00;43.50;;;;;;5040039;28;20477;-58
2022/04/27 01:42:54;;;;;;;2.50;2.30;;;19.00;43.50;;;;;;5038189;28;20468;-56
2022/04/27 01:45:20;;;;;;;2.13;2.03;;;19.00;43.50;;;;;;5036986;28;20415;-58
2022/04/27 01:47:46;;;;;;;2.30;2.20;;;19.00;43.40;;;;;;5033191;28;20899;-57
2022/04/27 01:50:11;;;;;;;2.30;2.20;;;19.00;43.30;;;;;;5039828;28;20242;-59
2022/04/27 01:55:21;;;;;;;2.03;1.93;;;19.00;43.50;;;;;;5041647;28;20255;-57
2022/04/27 01:57:48;;;;;;;2.13;2.03;;;19.00;43.40;;;;;;5036817;28;20432;-58
2022/04/27 02:00:15;;;;;;;2.50;2.40;;;18.90;43.20;;;;;;5039142;28;20553;-58
2022/04/27 02:02:41;;;;;;;2.10;2.00;;;19.00;43.50;;;;;;5028143;28;20930;-60
2022/04/27 02:05:07;;;;;;;2.20;2.00;;;19.00;43.50;;;;;;5037524;28;21017;-57
2022/04/27 02:07:32;;;;;;;2.00;1.80;;;19.00;43.40;;;;;;5036563;28;20435;-57
2022/04/27 02:09:58;;;;;;;2.10;2.00;;;19.00;43.50;;;;;;5038761;28;20954;-57
2022/04/27 02:12:24;;;;;;;2.10;2.00;;;19.00;43.50;;;;;;5042535;28;20218;-60
2022/04/27 02:14:49;;;;;;;2.33;2.23;;;19.00;43.50;;;;;;5036103;28;20226;-58
2022/04/27 02:17:15;;;;;;;2.70;2.50;;;19.00;43.40;;;;;;5038965;28;20222;-58
2022/04/27 02:19:41;;;;;;;3.80;2.03;;;19.00;43.40;;;;;;5024981;28;20245;-58
2022/04/27 02:22:06;;;;;;;2.40;2.30;;;19.00;43.30;;;;;;5046052;28;20265;-59
2022/04/27 02:24:32;;;;;;;2.77;2.60;;;19.00;43.50;;;;;;5040086;28;20435;-57
2022/04/27 02:26:57;;;;;;;2.30;2.20;;;19.00;43.40;;;;;;5041762;28;20859;-57
2022/04/27 02:29:24;;;;;;;2.27;2.17;;;18.90;43.30;;;;;;5037157;28;20660;-57
2022/04/27 02:31:50;;;;;;;2.40;2.30;;;19.00;43.40;;;;;;5038952;28;20309;-57
2022/04/27 02:34:16;;;;;;;2.20;2.10;;;19.00;43.40;;;;;;5038506;28;20415;-57
2022/04/27 02:36:41;;;;;;;5.20;2.10;;;19.00;43.40;;;;;;5040974;28;20445;-57
2022/04/27 02:39:07;;;;;;;2.20;2.10;;;19.00;43.40;;;;;;5039032;28;20246;-57
2022/04/27 02:41:32;;;;;;;5.27;2.10;;;18.90;43.30;;;;;;5041246;28;20235;-57
2022/04/27 02:43:58;;;;;;;2.37;2.27;;;19.00;43.40;;;;;;5039518;28;20220;-58
2022/04/27 02:46:24;;;;;;;2.20;2.10;;;19.00;43.30;;;;;;5037364;28;20276;-59
2022/04/27 02:51:48;;;;;;;2.00;1.90;;;18.90;43.20;;;;;;5036733;28;20241;-58
2022/04/27 02:54:18;;;;;;;2.07;1.97;;;18.90;43.20;;;;;;5028794;28;20819;-57
2022/04/27 02:56:43;;;;;;;2.03;1.93;;;19.00;43.40;;;;;;5039446;28;20516;-59
2022/04/27 02:59:09;;;;;;;2.00;1.90;;;18.90;43.30;;;;;;5038318;28;20483;-57
2022/04/27 03:01:35;;;;;;;2.27;2.17;;;18.90;43.30;;;;;;5038043;28;20250;-57
2022/04/27 03:04:01;;;;;;;2.43;2.20;;;18.90;43.30;;;;;;5038341;28;20656;-57
2022/04/27 03:06:26;;;;;;;2.17;2.07;;;18.90;43.20;;;;;;5036730;28;20249;-58
2022/04/27 03:08:52;;;;;;;2.13;2.03;;;18.90;43.20;;;;;;5038499;28;20594;-57
2022/04/27 03:11:17;;;;;;;2.00;1.90;;;18.90;44.00;;;;;;5040244;28;20233;-57
2022/04/27 03:13:43;;;;;;;2.60;2.40;;;18.90;43.20;;;;;;5042357;28;20223;-57
2022/04/27 03:16:09;;;;;;;2.10;2.00;;;18.90;43.20;;;;;;5038677;28;20627;-57
2022/04/27 03:18:34;;;;;;;2.20;2.10;;;18.90;43.20;;;;;;5036316;28;20653;-59
2022/04/27 03:21:00;;;;;;;2.43;2.33;;;18.90;43.20;;;;;;5040791;28;20297;-58
2022/04/27 03:23:25;;;;;;;2.13;2.00;;;18.90;43.20;;;;;;5040574;28;20313;-57
2022/04/27 03:25:51;;;;;;;2.00;1.90;;;18.90;43.30;;;;;;5037288;28;20232;-59
2022/04/27 03:28:16;;;;;;;2.00;1.90;;;18.90;43.20;;;;;;5041561;28;20239;-58
2022/04/27 03:30:42;;;;;;;2.00;1.90;;;18.90;43.20;;;;;;5039966;28;20678;-57
2022/04/27 03:33:07;;;;;;;2.47;2.37;;;18.90;43.20;;;;;;5038517;28;20249;-58
2022/04/27 03:35:33;;;;;;;2.20;2.00;;;18.90;43.20;;;;;;5037467;28;20226;-57
2022/04/27 03:37:59;;;;;;;2.27;2.17;;;18.90;43.20;;;;;;5037337;28;20676;-58
2022/04/27 03:40:25;;;;;;;2.50;2.30;;;18.90;43.20;;;;;;5040449;28;20232;-58
2022/04/27 03:42:51;;;;;;;2.20;2.10;;;18.90;43.20;;;;;;5039300;28;20210;-57
2022/04/27 03:45:19;;;;;;;2.37;2.27;;;18.90;43.20;;;;;;5035826;28;20502;-58
2022/04/27 03:47:46;;;;;;;2.43;2.33;;;18.90;43.20;;;;;;5035172;28;20548;-57
2022/04/27 03:50:12;;;;;;;3.07;2.97;;;18.90;43.20;;;;;;5042055;28;20446;-57
2022/04/27 03:52:37;;;;;;;2.20;2.10;;;18.90;43.20;;;;;;5036889;28;20456;-59
2022/04/27 03:55:03;;;;;;;2.43;2.30;;;18.90;43.10;;;;;;5038290;28;20231;-57
2022/04/27 03:57:29;;;;;;;2.77;2.57;;;18.90;43.20;;;;;;5037078;28;20753;-60
2022/04/27 03:59:54;;;;;;;2.20;2.10;;;18.90;43.20;;;;;;5043217;28;20238;-59
2022/04/27 04:02:20;;;;;;;2.30;2.20;;;18.90;43.20;;;;;;5037236;28;20246;-56
2022/04/27 04:04:46;;;;;;;2.27;2.17;;;18.90;43.10;;;;;;5037627;28;20230;-56
2022/04/27 04:07:12;;;;;;;2.33;2.07;;;18.90;43.10;;;;;;5034962;28;20474;-56
2022/04/27 04:09:41;;;;;;;2.03;1.93;;;18.90;43.10;;;;;;5018668;28;20534;-58
2022/04/27 04:12:07;;;;;;;2.70;2.50;;;18.90;43.10;;;;;;5039398;28;20222;-57
2022/04/27 04:14:33;;;;;;;2.20;2.10;;;18.90;43.10;;;;;;5037995;28;20473;-58
2022/04/27 04:16:59;;;;;;;2.20;2.10;;;18.90;43.10;;;;;;5036853;28;20765;-58
2022/04/27 04:19:24;;;;;;;2.50;2.30;;;19.00;43.20;;;;;;5040475;28;20706;-61
2022/04/27 04:21:50;;;;;;;2.30;2.20;;;19.00;43.10;;;;;;5034238;28;20975;-58
2022/04/27 04:24:16;;;;;;;2.50;2.30;;;19.00;43.00;;;;;;5034530;28;20305;-57
2022/04/27 04:29:27;;;;;;;2.50;2.40;;;19.00;42.90;;;;;;5035716;28;20555;-58
2022/04/27 04:31:53;;;;;;;2.10;2.00;;;19.10;42.80;;;;;;5041387;28;20897;-58
2022/04/27 04:34:18;;;;;;;2.10;2.00;;;19.10;42.80;;;;;;5038504;28;20226;-57
2022/04/27 04:36:44;;;;;;;2.43;2.33;;;19.10;42.80;;;;;;5039221;28;20737;-58
2022/04/27 04:39:10;;;;;;;2.73;2.10;;;19.10;42.80;;;;;;5037171;28;20219;-56
2022/04/27 04:41:35;;;;;;;2.10;2.00;;;19.10;42.70;;;;;;5036891;28;20315;-57
2022/04/27 04:44:01;;;;;;;2.10;2.00;;;19.10;42.70;;;;;;5035814;28;20223;-57
2022/04/27 04:46:26;;;;;;;2.23;2.13;;;19.10;42.70;;;;;;5039694;28;20647;-58
2022/04/27 04:48:52;;;;;;;2.33;2.23;;;19.10;42.70;;;;;;5043176;28;20238;-58
2022/04/27 04:51:17;;;;;;;2.50;2.40;;;19.10;42.80;;;;;;5042161;28;20537;-57
2022/04/27 04:53:43;;;;;;;2.10;2.00;;;19.10;42.80;;;;;;5039906;28;20222;-57
2022/04/27 04:56:08;;;;;;;2.37;2.27;;;19.10;42.80;;;;;;5038861;28;20230;-58
2022/04/27 04:58:34;;;;;;;2.40;2.30;;;19.10;42.80;;;;;;5042097;28;20283;-58
2022/04/27 05:01:01;;;;;;;3.23;3.00;;;19.10;42.80;;;;;;5034908;28;20290;-58
2022/04/27 05:03:27;;;;;;;2.43;2.23;;;19.10;42.80;;;;;;5040621;28;20218;-58
2022/04/27 05:05:52;;;;;;;2.17;2.07;;;19.10;42.80;;;;;;5043640;28;20442;-58
2022/04/27 05:08:18;;;;;;;2.87;2.70;;;19.10;42.80;;;;;;5035484;28;20222;-59
2022/04/27 05:10:44;;;;;;;2.20;2.10;;;19.10;43.60;;;;;;5038132;28;20704;-58
2022/04/27 05:13:09;;;;;;;2.40;1.90;;;19.10;42.80;;;;;;5037600;28;20314;-60
2022/04/27 05:15:35;;;;;;;2.50;2.40;;;19.10;42.80;;;;;;5025322;28;20679;-60
2022/04/27 05:18:01;;;;;;;2.27;2.17;;;19.10;42.80;;;;;;5035216;28;20222;-58
2022/04/27 05:20:27;;;;;;;2.90;2.27;;;19.10;42.80;;;;;;5036911;28;20222;-60
2022/04/27 05:22:52;;;;;;;2.33;2.23;;;19.10;42.80;;;;;;5038917;28;20437;-57
2022/04/27 05:25:18;;;;;;;2.20;2.10;;;19.10;42.70;;;;;;5040558;28;20245;-57
2022/04/27 05:27:44;;;;;;;2.20;2.10;;;19.10;42.70;;;;;;5039624;28;20571;-57
2022/04/27 05:32:58;;;;;;;2.00;1.90;;;19.10;42.60;;;;;;5039048;28;20218;-57
2022/04/27 05:35:24;;;;;;;1.90;1.80;;;19.10;42.60;;;;;;5033025;28;20419;-58
2022/04/27 05:37:50;;;;;;;2.40;2.30;;;19.10;42.60;;;;;;5037035;28;20425;-58
2022/04/27 05:40:16;;;;;;;3.23;2.20;;;19.10;42.60;;;;;;5036395;28;20218;-56
2022/04/27 05:42:41;;;;;;;2.30;2.20;;;19.10;42.60;;;;;;5041157;28;20920;-57
2022/04/27 05:45:08;;;;;;;2.47;2.37;;;19.20;42.70;;;;;;5044162;28;20667;-61
2022/04/27 05:47:34;;;;;;;2.67;2.37;;;19.10;42.60;;;;;;5039521;28;20227;-58
2022/04/27 05:49:59;;;;;;;2.80;2.60;;;19.10;42.60;;;;;;5037741;28;20793;-58
2022/04/27 05:52:25;;;;;;;2.47;2.37;;;19.10;42.60;;;;;;5042740;28;20687;-56
2022/04/27 05:54:54;;;;;;;2.50;2.40;;;19.10;42.60;;;;;;5040722;28;20294;-57
2022/04/27 05:57:19;;;;;;;2.37;2.27;;;19.10;42.60;;;;;;5041470;28;20562;-57
2022/04/27 05:59:45;;;;;;;2.40;2.30;;;19.10;42.60;;;;;;5026158;28;20502;-57
2022/04/27 06:02:11;;;;;;;2.43;2.23;;;19.10;42.60;;;;;;5041363;28;20218;-58
2022/04/27 06:04:37;;;;;;;2.57;2.40;;;19.10;42.60;;;;;;5039588;28;20229;-58
2022/04/27 06:07:04;;;;;;;2.67;2.53;;;19.10;42.60;;;;;;5040047;28;20235;-57
2022/04/27 06:09:29;;;;;;;2.70;2.50;;;19.10;42.60;;;;;;5040586;28;20459;-57
2022/04/27 06:11:55;;;;;;;2.50;2.30;;;19.10;42.60;;;;;;5038754;28;20444;-56
2022/04/27 06:14:21;;;;;;;2.30;2.20;;;19.10;42.60;;;;;;5040175;28;20255;-57
2022/04/27 06:16:46;;;;;;;2.30;2.20;;;19.10;42.60;;;;;;5041543;28;20226;-57
2022/04/27 06:19:13;;;;;;;2.63;2.43;;;19.10;42.60;;;;;;5043105;28;20230;-57
2022/04/27 06:21:38;;;;;;;2.40;2.30;;;19.10;42.60;;;;;;5037614;28;20230;-57
2022/04/27 06:24:05;;;;;;;2.20;2.10;;;19.10;42.60;;;;;;5041517;28;20557;-56
2022/04/27 06:26:33;;;;;;;2.47;2.37;;;19.10;42.60;;;;;;5029169;28;20251;-56
2022/04/27 06:28:59;;;;;;;1.97;1.87;;;19.10;42.60;;;;;;5042358;28;20426;-58
2022/04/27 06:31:25;;;;;;;2.40;2.30;;;19.10;42.70;;;;;;5042498;28;20510;-56
2022/04/27 06:33:51;;;;;;;2.90;2.70;;;19.10;42.60;;;;;;5038547;28;20973;-55
2022/04/27 06:36:16;;;;;;;2.60;2.20;;;19.10;42.60;;;;;;5036512;28;20226;-57
2022/04/27 06:38:42;;;;;;;2.90;2.50;;;19.10;42.60;;;;;;5039188;28;20621;-56
2022/04/27 06:41:08;;;;;;;2.90;2.70;;;19.10;42.60;;;;;;5038678;28;20223;-57
2022/04/27 06:43:34;;;;;;;2.30;2.10;;;19.10;42.60;;;;;;5040552;28;20687;-57
2022/04/27 06:46:00;;;;;;;2.33;2.13;;;19.10;42.50;;;;;;5042522;28;20326;-57
2022/04/27 06:48:26;;;;;;;2.67;2.47;;;19.20;42.70;;;;;;5041019;28;20443;-57
2022/04/27 06:50:52;;;;;;;2.40;2.30;;;19.10;42.50;;;;;;5040549;28;20418;-58
2022/04/27 06:53:17;;;;;;;3.10;2.67;;;19.20;42.60;;;;;;5037826;28;20438;-57
2022/04/27 06:55:43;;;;;;;2.60;2.50;;;19.20;42.60;;;;;;5041435;28;20210;-57
2022/04/27 06:58:09;;;;;;;2.83;2.43;;;19.10;42.50;;;;;;5040576;28;20223;-57
2022/04/27 07:00:36;;;;;;;2.60;2.40;;;19.20;42.60;;;;;;5041335;28;20230;-57
2022/04/27 07:03:02;;;;;;;2.83;2.20;;;19.10;42.50;;;;;;5040251;28;20221;-57
2022/04/27 07:05:27;;;;;;;3.03;2.73;;;19.10;42.50;;;;;;5037540;28;20419;-56
2022/04/27 07:07:53;;;;;;;2.33;2.13;;;19.10;42.50;;;;;;5042457;28;20206;-57
2022/04/27 07:10:19;;;;;;;2.90;2.70;;;19.10;42.60;;;;;;5042713;28;21049;-57
2022/04/27 07:12:47;;;;;;;2.83;2.63;;;19.20;42.70;;;;;;5038340;28;20223;-57
2022/04/27 07:15:12;;;;;;;3.13;2.83;;;19.20;42.70;;;;;;5041680;28;20260;-57
2022/04/27 07:17:38;;;;;;;2.20;2.10;;;19.20;42.70;;;;;;5040392;28;20495;-56
2022/04/27 07:20:04;;;;;;;3.00;2.70;;;19.20;42.60;;;;;;5037447;28;20266;-57
2022/04/27 07:22:30;;;;;;;2.10;2.00;;;19.10;42.50;;;;;;5040983;28;20219;-57
2022/04/27 07:24:56;;;;;;;2.50;2.30;;;19.10;42.50;;;;;;5040738;28;20477;-57
2022/04/27 07:27:21;;;;;;;2.97;2.77;;;19.10;42.60;;;;;;5037325;28;20303;-57
2022/04/27 07:29:47;;;;;;;2.43;2.17;;;19.20;42.60;;;;;;5036966;28;20318;-58
2022/04/27 07:32:12;;;;;;;2.90;2.70;;;19.20;42.60;;;;;;5037051;28;20290;-57
2022/04/27 07:34:38;;;;;;;2.27;2.17;;;19.20;42.90;;;;;;5038688;28;20730;-57
2022/04/27 07:37:05;;;;;;;2.63;2.53;;;19.20;42.70;;;;;;5038529;28;20651;-57
2022/04/27 07:39:32;;;;;;;2.47;2.30;;;19.10;42.50;;;;;;5038896;28;20747;-57
2022/04/27 07:41:57;;;;;;;2.23;2.13;;;19.20;42.60;;;;;;5038087;28;20432;-57
2022/04/27 07:44:23;;;;;;;2.10;2.00;;;19.20;42.70;;;;;;5041349;28;20494;-57
2022/04/27 07:46:49;;;;;;;2.20;2.10;;;19.20;42.60;;;;;;5037667;28;20265;-57
2022/04/27 07:49:16;;;;;;;5.97;2.67;;;19.20;42.60;;;;;;5037628;28;20717;-57
2022/04/27 07:51:41;;;;;;;2.30;2.10;;;19.20;42.60;;;;;;5027464;28;20230;-57
2022/04/27 07:54:07;;;;;;;2.00;1.90;;;19.20;42.60;;;;;;5040240;28;20448;-57
2022/04/27 07:56:32;;;;;;;2.53;2.43;;;19.20;42.60;;;;;;5023875;28;20215;-57
2022/04/27 07:58:58;;;;;;;2.20;2.03;;;19.20;42.70;;;;;;5033255;28;20364;-57
2022/04/27 08:01:24;;;;;;;2.30;2.10;;;19.20;42.70;;;;;;5038151;28;20219;-57
2022/04/27 08:03:49;;;;;;;2.37;2.27;;;19.20;43.40;;;;;;5038858;28;20574;-56
2022/04/27 08:06:15;;;;;;;2.10;2.00;;;19.10;42.50;;;;;;5039218;28;20233;-58
2022/04/27 08:08:41;;;;;;;2.47;2.27;;;19.20;42.60;;;;;;5023444;28;20237;-57
2022/04/27 08:11:07;;;;;;;2.50;2.40;;;19.20;42.70;;;;;;5036710;28;20227;-57
2022/04/27 08:13:33;;;;;;;2.30;2.20;;;19.20;42.70;;;;;;5034701;28;20309;-57
2022/04/27 08:15:59;;;;;;;2.17;2.07;;;19.10;42.60;;;;;;5037358;28;20443;-57
2022/04/27 08:18:25;;;;;;;2.10;2.00;;;19.20;42.70;;;;;;5042422;28;20449;-57
2022/04/27 08:23:37;;;;;;;2.20;2.10;;;19.20;42.70;;;;;;5036355;28;20808;-57
2022/04/27 08:26:05;;;;;;;2.80;2.60;;;19.20;42.70;;;;;;5036856;28;20430;-57
2022/04/27 08:28:32;;;;;;;1.93;1.83;;;19.10;42.50;;;;;;5036982;28;20589;-57
2022/04/27 08:30:59;;;;;;;2.23;2.13;;;19.10;42.60;;;;;;5017246;28;20418;-57
2022/04/27 08:33:25;;;;;;;2.50;2.30;;;19.10;42.50;;;;;;5040067;28;20408;-58
2022/04/27 08:35:51;;;;;;;2.30;2.20;;;19.10;42.60;;;;;;5035004;28;20407;-57
2022/04/27 08:38:17;;;;;;;2.67;2.47;;;19.10;42.60;;;;;;5039472;28;20920;-57
2022/04/27 08:40:44;;;;;;;2.50;2.30;;;19.20;43.40;;;;;;5038216;28;20426;-57
2022/04/27 08:43:11;;;;;;;2.07;1.97;;;19.10;42.50;;;;;;5037657;28;20579;-57
2022/04/27 08:45:38;;;;;;;2.33;2.13;;;19.10;42.50;;;;;;5034350;28;20428;-57
2022/04/27 08:48:04;;;;;;;3.20;2.20;;;19.10;42.60;;;;;;5037739;28;20810;-58
2022/04/27 08:50:30;;;;;;;2.03;1.93;;;19.20;42.70;;;;;;5037014;28;20435;-57
2022/04/27 08:52:56;;;;;;;2.20;2.10;;;19.20;42.70;;;;;;5026441;28;20444;-57
2022/04/27 08:55:22;;;;;;;2.20;2.10;;;19.20;42.60;;;;;;5039035;28;20222;-58
2022/04/27 08:57:48;;;;;;;2.40;2.30;;;19.10;42.60;;;;;;5033060;28;20756;-58
2022/04/27 09:00:19;;;;;;;3.00;2.70;;;19.10;43.30;;;;;;5037546;28;20433;-58
2022/04/27 09:02:46;;;;;;;2.10;2.00;;;19.10;42.60;;;;;;5038640;28;21137;-56
2022/04/27 09:05:17;;;;;;;2.77;2.20;;;19.10;43.00;;;;;;5038937;28;20422;-58
2022/04/27 09:07:42;;;;;;;2.40;2.20;;;19.10;42.60;;;;;;5034504;28;20438;-57
2022/04/27 09:10:15;;;;;;;2.07;1.97;;;19.10;42.60;;;;;;5033767;28;20460;-57
2022/04/27 09:12:46;;;;;;;2.33;2.00;;;19.20;42.70;;;;;;5034718;28;20264;-58
2022/04/27 09:15:13;;;;;;;2.60;2.50;;;19.10;42.60;;;;;;5035480;28;20534;-59
2022/04/27 09:23:19;;;;;;;2.47;2.37;;;19.10;42.60;;;;;;5036817;28;20451;-57
2022/04/27 09:25:45;;;;;;;2.23;2.13;;;19.10;42.60;;;;;;5035397;28;20418;-57
2022/04/27 09:28:11;;;;;;;2.30;2.20;;;19.10;42.60;;;;;;5036192;28;20448;-58
2022/04/27 09:30:36;;;;;;;2.37;2.20;;;19.10;42.60;;;;;;5037068;28;20230;-57
2022/04/27 09:33:02;;;;;;;2.80;2.60;;;19.10;42.60;;;;;;5034447;28;20229;-56
2022/04/27 09:35:35;;;;;;;2.23;2.13;;;19.10;42.60;;;;;;5042095;28;20309;-57
2022/04/27 09:38:15;;;;;;;3.23;3.03;;;19.10;42.60;;;;;;5036139;28;20311;-56
2022/04/27 09:40:57;;;;;;;2.50;2.40;;;19.10;42.60;;;;;;5035213;28;20426;-58
2022/04/27 09:43:45;;;;;;;2.50;2.37;;;19.10;42.60;;;;;;5034790;28;20814;-56
2022/04/27 09:46:22;;;;;;;2.40;2.27;;;19.10;42.60;;;;;;5037202;28;20448;-57
2022/04/27 09:49:11;;;;;;;2.30;2.20;;;19.10;42.60;;;;;;5039122;28;20439;-56
2022/04/27 09:51:57;;;;;;;2.20;2.10;;;19.10;42.60;;;;;;5033706;28;20443;-57
2022/04/27 09:54:25;;;;;;;2.33;2.23;;;19.10;43.40;;;;;;5034916;28;20956;-57
2022/04/27 09:56:54;;;;;;;2.60;2.43;;;19.10;42.70;;;;;;5037350;28;20520;-57
2022/04/27 09:59:22;;;;;;;2.40;2.30;;;19.10;43.50;;;;;;5035776;28;20808;-57
2022/04/27 10:01:49;;;;;;;2.30;2.20;;;19.10;42.70;;;;;;5037444;28;20469;-57
2022/04/27 10:04:19;;;;;;;2.50;2.40;;;19.10;42.70;;;;;;5038235;28;20426;-56
2022/04/27 10:06:45;;;;;;;2.43;2.33;;;19.10;42.70;;;;;;5037870;28;20437;-56
2022/04/27 10:09:11;;;;;;;2.93;2.83;;;19.10;42.80;;;;;;5037286;28;20488;-57
2022/04/27 10:11:37;;;;;;;2.80;2.60;;;19.10;42.70;;;;;;5034346;28;20505;-57
2022/04/27 10:14:03;;;;;;;2.60;2.40;;;19.10;42.80;;;;;;5036146;28;20226;-57
2022/04/27 10:16:29;;;;;;;2.77;2.57;;;19.10;42.70;;;;;;5036396;28;20427;-57
2022/04/27 10:18:55;;;;;;;2.60;2.40;;;19.10;42.70;;;;;;5039142;28;20308;-57
2022/04/27 10:21:43;;;;;;;2.40;2.30;;;19.10;42.70;;;;;;5039713;28;20448;-57
2022/04/27 10:24:10;;;;;;;2.73;2.53;;;19.10;42.70;;;;;;5037773;28;20280;-57
2022/04/27 10:26:36;;;;;;;2.80;2.60;;;19.10;42.80;;;;;;5036230;28;20418;-57
2022/04/27 10:29:08;;;;;;;3.03;2.83;;;19.10;42.80;;;;;;5039947;28;20484;-57
2022/04/27 10:31:40;;;;;;;2.70;2.60;;;19.10;42.70;;;;;;5042385;28;20231;-57
2022/04/27 10:34:22;;;;;;;2.87;2.67;;;19.10;42.70;;;;;;5042288;28;20510;-57
2022/04/27 10:36:55;;;;;;;2.93;2.73;;;19.10;42.80;;;;;;5038872;28;20459;-57
2022/04/27 10:39:25;;;;;;;2.40;2.20;;;19.10;42.80;;;;;;5039597;28;20483;-56
2022/04/27 10:41:55;;;;;;;2.30;2.20;;;19.10;42.80;;;;;;5035493;28;20426;-57
2022/04/27 10:44:21;;;;;;;3.47;3.10;;;19.10;42.80;;;;;;5036526;28;20456;-57
2022/04/27 10:46:47;;;;;;;3.00;2.80;;;19.10;42.80;;;;;;5041107;28;20790;-57
2022/04/27 10:49:28;;;;;;;2.57;2.47;;;19.10;42.80;;;;;;5038360;28;20491;-57
2022/04/27 10:52:07;;;;;;;3.17;2.97;;;19.10;42.80;;;;;;5042522;28;20215;-57
2022/04/27 10:54:37;;;;;;;2.90;2.80;;;19.10;42.80;;;;;;5039542;28;20915;-57
2022/04/27 10:57:14;;;;;;;3.03;2.73;;;19.10;42.80;;;;;;5039656;28;20418;-57
2022/04/27 10:59:48;;;;;;;3.10;2.93;;;19.10;42.90;;;;;;5035624;28;20442;-57
2022/04/27 11:02:41;;;;;;;3.00;2.80;;;19.10;42.90;;;;;;5038316;28;20428;-57
2022/04/27 11:05:10;;;;;;;2.60;2.50;;;19.10;42.90;;;;;;5031979;28;20426;-57
2022/04/27 11:07:56;;;;;;;3.10;2.93;;;19.00;42.90;;;;;;5037757;28;20468;-57
2022/04/27 11:10:24;;;;;;;3.30;3.00;;;19.00;42.90;;;;;;5037845;28;20442;-57
2022/04/27 11:12:52;;;;;;;3.13;2.93;;;19.00;42.90;;;;;;5038473;28;20527;-57
2022/04/27 11:15:25;;;;;;;3.23;3.03;;;19.00;42.90;;;;;;5039984;28;21006;-57
2022/04/27 11:18:03;;;;;;;2.87;2.77;;;19.00;42.80;;;;;;5039207;28;20428;-57
2022/04/27 11:20:34;;;;;;;3.40;3.20;;;19.00;42.90;;;;;;5036072;28;20805;-57
2022/04/27 11:23:03;;;;;;;4.33;3.30;;;19.10;43.00;;;;;;5038616;28;20430;-57
2022/04/27 11:25:31;;;;;;;3.30;3.10;;;19.00;42.90;;;;;;5037678;28;20415;-57
2022/04/27 11:28:00;;;;;;;3.00;2.90;;;19.00;42.90;;;;;;5042113;28;20776;-57
2022/04/27 11:30:29;;;;;;;3.67;3.37;;;19.00;42.90;;;;;;5038850;28;20464;-58
2022/04/27 11:32:54;;;;;;;4.00;3.47;;;19.00;42.90;;;;;;5036334;28;20443;-57
2022/04/27 11:35:23;;;;;;;3.10;2.90;;;19.00;42.90;;;;;;5038440;28;20469;-58
2022/04/27 11:37:53;;;;;;;3.50;3.30;;;19.00;42.90;;;;;;5039350;28;20323;-58
2022/04/27 11:40:26;;;;;;;3.70;3.50;;;19.00;42.90;;;;;;5038885;28;20438;-58
2022/04/27 11:42:52;;;;;;;3.67;3.47;;;19.10;43.00;;;;;;5040167;28;20422;-58
2022/04/27 11:45:22;;;;;;;3.50;3.30;;;19.00;42.90;;;;;;5043774;28;20509;-58
2022/04/27 11:48:01;;;;;;;3.80;3.60;;;19.00;42.90;;;;;;5039571;28;20414;-58
2022/04/27 11:50:31;;;;;;;3.10;2.90;;;19.00;42.90;;;;;;5043385;28;20434;-58
2022/04/27 11:53:08;;;;;;;3.67;3.47;;;19.00;42.90;;;;;;5036632;28;20427;-58
2022/04/27 11:55:35;;;;;;;4.10;3.90;;;19.00;42.90;;;;;;5036799;28;20450;-57
2022/04/27 11:58:04;;;;;;;3.00;2.80;;;19.00;42.90;;;;;;5037697;28;21133;-58
2022/04/27 12:00:34;;;;;;;3.37;3.17;;;19.00;42.90;;;;;;5038054;28;20437;-57
2022/04/27 12:03:06;;;;;;;3.53;3.30;;;19.00;42.90;;;;;;5033235;28;20449;-58
2022/04/27 12:05:33;;;;;;;3.90;3.60;;;19.00;43.00;;;;;;5034623;28;20842;-58
2022/04/27 12:08:01;;;;;;;3.60;3.40;;;19.00;43.00;;;;;;5038460;28;20457;-57
2022/04/27 12:10:28;;;;;;;3.30;3.10;;;19.00;43.00;;;;;;5039563;28;20500;-58
2022/04/27 12:12:56;;;;;;;3.60;3.40;;;19.00;43.00;;;;;;5041162;28;20427;-58
2022/04/27 12:15:26;;;;;;;3.23;3.03;;;19.00;43.00;;;;;;5041019;28;20414;-58
2022/04/27 12:17:57;;;;;;;4.00;3.77;;;19.00;43.00;;;;;;5040278;28;20419;-58
2022/04/27 12:20:25;;;;;;;4.00;3.80;;;19.00;43.00;;;;;;5039298;28;20967;-58
2022/04/27 12:22:52;;;;;;;3.33;3.13;;;19.00;43.00;;;;;;5037624;28;20408;-58
2022/04/27 12:25:18;;;;;;;3.33;3.13;;;19.00;43.10;;;;;;5036860;28;20825;-58
2022/04/27 12:27:44;;;;;;;3.30;3.10;;;19.00;43.00;;;;;;5039325;28;20426;-58
2022/04/27 12:30:10;;;;;;;3.80;3.60;;;19.00;43.10;;;;;;5037507;28;20262;-58
2022/04/27 12:32:36;;;;;;;4.33;4.03;;;19.00;43.80;;;;;;5039836;28;20695;-58
2022/04/27 12:37:54;;;;;;;3.90;3.63;;;19.00;43.10;;;;;;5038545;28;20933;-58
2022/04/27 12:40:20;;;;;;;3.83;3.63;;;19.00;43.00;;;;;;5035598;28;20411;-58
2022/04/27 12:43:04;;;;;;;4.53;3.90;;;19.00;43.10;;;;;;5038816;28;20423;-57
2022/04/27 12:45:30;;;;;;;9.40;4.03;;;19.00;43.10;;;;;;5038168;28;20452;-58
2022/04/27 12:47:56;;;;;;;3.87;3.67;;;19.00;43.10;;;;;;5036362;28;20973;-58
2022/04/27 12:50:22;;;;;;;4.23;4.03;;;19.00;43.10;;;;;;5036739;28;20460;-58
2022/04/27 12:52:49;;;;;;;4.03;3.73;;;19.00;43.10;;;;;;5036955;28;20229;-58
2022/04/27 12:55:17;;;;;;;4.03;3.83;;;19.00;43.10;;;;;;5033349;28;20427;-58
2022/04/27 12:57:48;;;;;;;4.40;4.10;;;19.00;43.10;;;;;;5035666;28;20914;-58
2022/04/27 13:00:16;;;;;;;4.20;4.00;;;19.00;43.10;;;;;;5038986;28;20539;-58
2022/04/27 13:02:43;;;;;;;4.17;3.97;;;19.00;43.10;;;;;;5036585;28;20420;-58
2022/04/27 13:05:09;;;;;;;4.30;4.10;;;19.00;43.10;;;;;;5039569;28;20467;-59
2022/04/27 13:07:35;;;;;;;4.13;3.83;;;19.00;43.20;;;;;;5040366;28;20438;-58
2022/04/27 13:12:45;;;;;;;4.83;4.63;;;19.00;43.20;;;;;;5039420;28;20430;-58